地図

経路データ

SID SEASON NUMBER BASIN SUBBASIN NAME ISO_TIME NATURE LAT LON WMO_WIND WMO_PRES WMO_AGENCY TRACK_TYPE DIST2LAND LANDFALL IFLAG USA_AGENCY USA_ATCF_ID USA_LAT USA_LON USA_RECORD USA_STATUS USA_WIND USA_PRES USA_SSHS USA_R34_NE USA_R34_SE USA_R34_SW USA_R34_NW USA_R50_NE USA_R50_SE USA_R50_SW USA_R50_NW USA_R64_NE USA_R64_SE USA_R64_SW USA_R64_NW USA_POCI USA_ROCI USA_RMW USA_EYE TOKYO_LAT TOKYO_LON TOKYO_GRADE TOKYO_WIND TOKYO_PRES TOKYO_R50_DIR TOKYO_R50_LONG TOKYO_R50_SHORT TOKYO_R30_DIR TOKYO_R30_LONG TOKYO_R30_SHORT TOKYO_LAND CMA_LAT CMA_LON CMA_CAT CMA_WIND CMA_PRES HKO_LAT HKO_LON HKO_CAT HKO_WIND HKO_PRES NEWDELHI_LAT NEWDELHI_LON NEWDELHI_GRADE NEWDELHI_WIND NEWDELHI_PRES NEWDELHI_CI NEWDELHI_DP NEWDELHI_POCI REUNION_LAT REUNION_LON REUNION_TYPE REUNION_WIND REUNION_PRES REUNION_TNUM REUNION_CI REUNION_RMW REUNION_R34_NE REUNION_R34_SE REUNION_R34_SW REUNION_R34_NW REUNION_R50_NE REUNION_R50_SE REUNION_R50_SW REUNION_R50_NW REUNION_R64_NE REUNION_R64_SE REUNION_R64_SW REUNION_R64_NW BOM_LAT BOM_LON BOM_TYPE BOM_WIND BOM_PRES BOM_TNUM BOM_CI BOM_RMW BOM_R34_NE BOM_R34_SE BOM_R34_SW BOM_R34_NW BOM_R50_NE BOM_R50_SE BOM_R50_SW BOM_R50_NW BOM_R64_NE BOM_R64_SE BOM_R64_SW BOM_R64_NW BOM_ROCI BOM_POCI BOM_EYE BOM_POS_METHOD BOM_PRES_METHOD NADI_LAT NADI_LON NADI_CAT NADI_WIND NADI_PRES WELLINGTON_LAT WELLINGTON_LON WELLINGTON_WIND WELLINGTON_PRES DS824_LAT DS824_LON DS824_STAGE DS824_WIND DS824_PRES TD9636_LAT TD9636_LON TD9636_STAGE TD9636_WIND TD9636_PRES TD9635_LAT TD9635_LON TD9635_WIND TD9635_PRES TD9635_ROCI NEUMANN_LAT NEUMANN_LON NEUMANN_CLASS NEUMANN_WIND NEUMANN_PRES MLC_LAT MLC_LON MLC_CLASS MLC_WIND MLC_PRES USA_GUST BOM_GUST BOM_GUST_PER REUNION_GUST REUNION_GUST_PER USA_SEAHGT USA_SEARAD_NE USA_SEARAD_SE USA_SEARAD_SW USA_SEARAD_NW STORM_SPEED STORM_DIR
1978231N14251 1978 72 EP MM KRISTY 1978-08-18 18:00:00 TS 13.6000 -109.200 30 hurdat_epa main 782 778 O________OO___ hurdat_epa EP111978 13.6000 -109.200 TD 30 -1 13.6000 -109.200 TC 30 13.6000 -109.200 1 30 9 303
1978231N14251 1978 72 EP MM KRISTY 1978-08-18 21:00:00 TS 13.8488 -109.599 main 791 783 P________PP___ EP111978 13.8476 -109.597 TD 35 0 13.8476 -109.597 TC 35 13.8536 -109.603 1 35 9 303
1978231N14251 1978 72 EP MM KRISTY 1978-08-19 00:00:00 TS 14.1000 -110.000 40 hurdat_epa main 795 794 O________OO___ hurdat_epa EP111978 14.1000 -110.000 TS 40 0 14.1000 -110.000 TC 40 14.1000 -110.000 2 40 9 303
1978231N14251 1978 72 EP MM KRISTY 1978-08-19 03:00:00 TS 14.3529 -110.403 main 801 801 P________PP___ EP111978 14.3575 -110.408 TS 42 0 14.3575 -110.408 TC 42 14.3346 -110.385 2 43 9 303
1978231N14251 1978 72 EP MM KRISTY 1978-08-19 06:00:00 TS 14.5920 -110.792 45 hurdat_epa main 816 816 O________OP___ hurdat_epa EP111978 14.6000 -110.800 TS 45 0 14.6000 -110.800 TC 45 14.5600 -110.761 2 47 8 302
1978231N14251 1978 72 EP MM KRISTY 1978-08-19 09:00:00 TS 14.7960 -111.146 main 824 824 P________PP___ EP111978 14.7999 -111.150 TS 50 0 14.7999 -111.150 TC 50 14.7803 -111.131 2 51 8 301
1978231N14251 1978 72 EP MM KRISTY 1978-08-19 12:00:00 TS 15.0000 -111.500 55 hurdat_epa main 842 842 O________OO___ hurdat_epa EP111978 15.0000 -111.500 TS 55 0 15.0000 -111.500 TC 55 15.0000 -111.500 2 55 9 302
1978231N14251 1978 72 EP MM KRISTY 1978-08-19 15:00:00 TS 15.2490 -111.893 main 862 855 P________PP___ EP111978 15.2500 -111.900 TS 60 0 15.2500 -111.900 TC 60 15.2450 -111.863 2 60 9 303
1978231N14251 1978 72 EP MM KRISTY 1978-08-19 18:00:00 TS 15.4974 -112.286 65 hurdat_epa main 862 846 O________OP___ hurdat_epa EP111978 15.5000 -112.300 HU 65 1 15.5000 -112.300 TC 65 15.4870 -112.228 2 65 9 303
1978231N14251 1978 72 EP MM KRISTY 1978-08-19 21:00:00 TS 15.7200 -112.635 main 850 839 P________PP___ EP111978 15.7223 -112.643 HU 70 1 15.7223 -112.643 TC 70 15.7105 -112.603 2 70 8 300
1978231N14251 1978 72 EP MM KRISTY 1978-08-20 00:00:00 TS 15.9000 -113.000 75 hurdat_epa main 843 841 O________OO___ hurdat_epa EP111978 15.9000 -113.000 HU 75 1 15.9000 -113.000 TC 75 15.9000 -113.000 4 75 8 291
1978231N14251 1978 72 EP MM KRISTY 1978-08-20 03:00:00 TS 16.0168 -113.436 main 850 848 P________PP___ EP111978 16.0150 -113.435 HU 77 1 16.0150 -113.435 TC 77 16.0238 -113.437 4 76 9 283
1978231N14251 1978 72 EP MM KRISTY 1978-08-20 06:00:00 TS 16.1030 -113.899 80 hurdat_epa main 863 863 O________OP___ hurdat_epa EP111978 16.1000 -113.900 HU 80 1 16.1000 -113.900 TC 80 16.1151 -113.893 4 77 9 281
1978231N14251 1978 72 EP MM KRISTY 1978-08-20 09:00:00 TS 16.1937 -114.357 main 879 879 P________PP___ EP111978 16.1924 -114.358 HU 80 1 16.1924 -114.358 TC 80 16.1988 -114.353 4 78 9 283
1978231N14251 1978 72 EP MM KRISTY 1978-08-20 12:00:00 TS 16.3000 -114.800 80 hurdat_epa main 892 892 O________OO___ hurdat_epa EP111978 16.3000 -114.800 HU 80 1 16.3000 -114.800 TC 80 16.3000 -114.800 4 80 9 287
1978231N14251 1978 72 EP MM KRISTY 1978-08-20 15:00:00 TS 16.4402 -115.210 main 908 905 P________PP___ EP111978 16.4349 -115.208 HU 80 1 16.4349 -115.208 TC 80 16.4612 -115.218 4 81 8 292
1978231N14251 1978 72 EP MM KRISTY 1978-08-20 18:00:00 TS 16.6084 -115.604 80 hurdat_epa main 916 914 O________OP___ hurdat_epa EP111978 16.6000 -115.600 HU 80 1 16.6000 -115.600 TC 80 16.6421 -115.622 4 82 8 296
1978231N14251 1978 72 EP MM KRISTY 1978-08-20 21:00:00 TS 16.8053 -116.003 main 926 925 P________PP___ EP111978 16.7999 -116.000 HU 82 1 16.7999 -116.000 TC 82 16.8269 -116.015 4 83 9 297
1978231N14251 1978 72 EP MM KRISTY 1978-08-21 00:00:00 TS 17.0000 -116.400 85 hurdat_epa main 939 938 O________OO___ hurdat_epa EP111978 17.0000 -116.400 HU 85 2 17.0000 -116.400 TC 85 17.0000 -116.400 4 85 8 295
1978231N14251 1978 72 EP MM KRISTY 1978-08-21 03:00:00 TS 17.1565 -116.803 main 954 954 P________PP___ EP111978 17.1650 -116.808 HU 87 2 17.1650 -116.808 TC 87 17.1229 -116.783 4 86 8 291
1978231N14251 1978 72 EP MM KRISTY 1978-08-21 06:00:00 TS 17.2869 -117.192 90 hurdat_epa main 978 978 O________OP___ hurdat_epa EP111978 17.3000 -117.200 HU 90 2 17.3000 -117.200 TC 90 17.2346 -117.158 4 87 7 288
1978231N14251 1978 72 EP MM KRISTY 1978-08-21 09:00:00 TS 17.3907 -117.546 main 989 989 P________PP___ EP111978 17.3999 -117.550 HU 90 2 17.3999 -117.550 TC 90 17.3541 -117.530 4 88 7 287
1978231N14251 1978 72 EP MM KRISTY 1978-08-21 12:00:00 TS 17.5000 -117.900 90 hurdat_epa main 1004 1004 O________OO___ hurdat_epa EP111978 17.5000 -117.900 HU 90 2 17.5000 -117.900 TC 90 17.5000 -117.900 4 90 8 289
1978231N14251 1978 72 EP MM KRISTY 1978-08-21 15:00:00 TS 17.6416 -118.290 main 1021 1012 P________PP___ EP111978 17.6200 -118.300 HU 90 2 17.6200 -118.300 TC 90 17.7282 -118.250 4 90 8 294
1978231N14251 1978 72 EP MM KRISTY 1978-08-21 18:00:00 TS 17.8358 -118.681 90 hurdat_epa main 1030 1019 O________OP___ hurdat_epa EP111978 17.8000 -118.700 HU 90 2 17.8000 -118.700 TC 90 17.9791 -118.604 4 90 9 305
1978231N14251 1978 72 EP MM KRISTY 1978-08-21 21:00:00 TS 18.1289 -119.024 main 1026 1024 P________PP___ EP111978 18.1073 -119.035 HU 90 2 18.1073 -119.035 TC 90 18.2155 -118.981 4 90 9 310
1978231N14251 1978 72 EP MM KRISTY 1978-08-22 00:00:00 TS 18.4000 -119.400 90 hurdat_epa main 1031 1031 O________OO___ hurdat_epa EP111978 18.4000 -119.400 HU 90 2 18.4000 -119.400 TC 90 18.4000 -119.400 4 90 9 297
1978231N14251 1978 72 EP MM KRISTY 1978-08-22 03:00:00 TS 18.5393 -119.873 main 1062 1062 P________PP___ EP111978 18.5525 -119.870 HU 90 2 18.5525 -119.870 TC 90 18.4867 -119.887 4 90 10 281
1978231N14251 1978 72 EP MM KRISTY 1978-08-22 06:00:00 TS 18.5835 -120.403 90 hurdat_epa main 1093 1093 O________OP___ hurdat_epa EP111978 18.6000 -120.400 HU 90 2 18.6000 -120.400 TC 90 18.5177 -120.413 4 90 10 271
1978231N14251 1978 72 EP MM KRISTY 1978-08-22 09:00:00 TS 18.5549 -120.952 main 1142 1142 P________PP___ EP111978 18.5650 -120.950 HU 90 2 18.5650 -120.950 TC 90 18.5148 -120.958 4 90 10 265
1978231N14251 1978 72 EP MM KRISTY 1978-08-22 12:00:00 TS 18.5000 -121.500 90 hurdat_epa main 1190 1190 O________OO___ hurdat_epa EP111978 18.5000 -121.500 HU 90 2 18.5000 -121.500 TC 90 18.5000 -121.500 4 90 10 267
1978231N14251 1978 72 EP MM KRISTY 1978-08-22 15:00:00 TS 18.4967 -122.002 main 1232 1232 P________PP___ EP111978 18.4923 -122.007 HU 82 1 18.4923 -122.007 TC 82 18.5142 -121.979 4 85 9 270
1978231N14251 1978 72 EP MM KRISTY 1978-08-22 18:00:00 TS 18.5042 -122.491 75 hurdat_epa main 1275 1275 O________OP___ hurdat_epa EP111978 18.5000 -122.500 HU 75 1 18.5000 -122.500 TC 75 18.5209 -122.455 4 80 9 271
1978231N14251 1978 72 EP MM KRISTY 1978-08-22 21:00:00 TS 18.5091 -122.967 main 1311 1311 P________PP___ EP111978 18.5071 -122.970 HU 72 1 18.5071 -122.970 TC 72 18.5172 -122.954 4 75 10 270
1978231N14251 1978 72 EP MM KRISTY 1978-08-23 00:00:00 TS 18.5000 -123.500 70 hurdat_epa main 1345 1345 O________OO___ hurdat_epa EP111978 18.5000 -123.500 HU 70 1 18.5000 -123.500 TC 70 18.5000 -123.500 4 70 11 267
1978231N14251 1978 72 EP MM KRISTY 1978-08-23 03:00:00 TS 18.4549 -124.166 main 1392 1392 P________PP___ EP111978 18.4576 -124.178 HU 67 1 18.4576 -124.178 TC 67 18.4440 -124.121 4 68 13 265
1978231N14251 1978 72 EP MM KRISTY 1978-08-23 06:00:00 TS 18.3955 -124.878 65 hurdat_epa main 1449 1449 O________OP___ hurdat_epa EP111978 18.4000 -124.900 HU 65 1 18.4000 -124.900 TC 65 18.3774 -124.791 4 67 13 265
1978231N14251 1978 72 EP MM KRISTY 1978-08-23 09:00:00 TS 18.3321 -125.538 main 1501 1501 P________PP___ EP111978 18.3346 -125.550 HU 65 1 18.3346 -125.550 TC 65 18.3220 -125.490 4 66 13 266
1978231N14251 1978 72 EP MM KRISTY 1978-08-23 12:00:00 TS 18.3000 -126.200 65 hurdat_epa main 1552 1552 O________OO___ hurdat_epa EP111978 18.3000 -126.200 HU 65 1 18.3000 -126.200 TC 65 18.3000 -126.200 4 65 13 270
1978231N14251 1978 72 EP MM KRISTY 1978-08-23 15:00:00 TS 18.3296 -126.894 main 1606 1606 P________PP___ EP111978 18.3273 -126.892 HU 65 1 18.3273 -126.892 TC 65 18.3386 -126.900 4 65 13 274
1978231N14251 1978 72 EP MM KRISTY 1978-08-23 18:00:00 TS 18.4024 -127.601 65 hurdat_epa main 1653 1653 O________OP___ hurdat_epa EP111978 18.4000 -127.600 HU 65 1 18.4000 -127.600 TC 65 18.4120 -127.607 4 65 14 277
1978231N14251 1978 72 EP MM KRISTY 1978-08-23 21:00:00 TS 18.5007 -128.308 main 1702 1702 P________PP___ EP111978 18.4998 -128.307 HU 65 1 18.4998 -128.307 TC 65 18.5043 -128.310 4 65 13 278
1978231N14251 1978 72 EP MM KRISTY 1978-08-24 00:00:00 TS 18.6000 -129.000 65 hurdat_epa main 1753 1753 O________OO___ hurdat_epa EP111978 18.6000 -129.000 HU 65 1 18.6000 -129.000 TC 65 18.6000 -129.000 4 65 13 277
1978231N14251 1978 72 EP MM KRISTY 1978-08-24 03:00:00 TS 18.6497 -129.659 main 1811 1804 P________PP___ EP111978 18.6497 -129.658 HU 60 0 18.6497 -129.658 TC 60 18.6497 -129.665 4 62 12 275
1978231N14251 1978 72 EP MM KRISTY 1978-08-24 06:00:00 TS 18.7008 -130.303 55 hurdat_epa main 1855 1855 O________OP___ hurdat_epa EP111978 18.7000 -130.300 TS 55 0 18.7000 -130.300 TC 55 18.7038 -130.316 4 60 12 276
1978231N14251 1978 72 EP MM KRISTY 1978-08-24 09:00:00 TS 18.7840 -130.952 main 1909 1909 P________PP___ EP111978 18.7848 -130.950 TS 55 0 18.7848 -130.950 TC 55 18.7810 -130.959 4 57 12 279
1978231N14251 1978 72 EP MM KRISTY 1978-08-24 12:00:00 TS 18.9000 -131.600 55 hurdat_epa main 1956 1956 O________OO___ hurdat_epa EP111978 18.9000 -131.600 TS 55 0 18.9000 -131.600 TC 55 18.9000 -131.600 2 55 13 282
1978231N14251 1978 72 EP MM KRISTY 1978-08-24 15:00:00 TS 19.0354 -132.253 main 2012 2006 P________PP___ EP111978 19.0198 -132.250 TS 55 0 19.0198 -132.250 TC 55 19.0977 -132.261 2 58 13 285
1978231N14251 1978 72 EP MM KRISTY 1978-08-24 18:00:00 TS 19.2269 -132.904 55 hurdat_epa main 2054 2054 O________OP___ hurdat_epa EP111978 19.2000 -132.900 TS 55 0 19.2000 -132.900 TC 55 19.3345 -132.921 2 62 13 291
1978231N14251 1978 72 EP MM KRISTY 1978-08-24 21:00:00 TS 19.5157 -133.566 main 2100 2100 P________PP___ EP111978 19.4999 -133.565 TS 62 0 19.4999 -133.565 TC 62 19.5791 -133.571 2 66 14 295
1978231N14251 1978 72 EP MM KRISTY 1978-08-25 00:00:00 TS 19.8000 -134.200 70 hurdat_epa main 2115 2102 O________OO___ hurdat_epa EP111978 19.8000 -134.200 HU 70 1 19.8000 -134.200 TC 70 19.8000 -134.200 4 70 12 292
1978231N14251 1978 72 EP MM KRISTY 1978-08-25 03:00:00 TS 19.9711 -134.769 main 2092 2039 P________PP___ EP111978 19.9796 -134.758 HU 72 1 19.9796 -134.758 TC 72 19.9369 -134.814 4 68 11 285
1978231N14251 1978 72 EP MM KRISTY 1978-08-25 06:00:00 TS 20.0899 -135.321 75 hurdat_epa main 2039 1977 O________OP___ hurdat_epa EP111978 20.1000 -135.300 HU 75 1 20.1000 -135.300 TC 75 20.0493 -135.404 4 67 11 281
1978231N14251 1978 72 EP MM KRISTY 1978-08-25 09:00:00 TS 20.1805 -135.926 main 1977 1914 P________PP___ EP111978 20.1851 -135.915 HU 70 1 20.1851 -135.915 TC 70 20.1621 -135.967 4 66 11 281
1978231N14251 1978 72 EP MM KRISTY 1978-08-25 12:00:00 TS 20.3000 -136.500 65 hurdat_epa main 1914 1862 O________OO___ hurdat_epa EP111978 20.3000 -136.500 HU 65 1 20.3000 -136.500 TC 65 20.3000 -136.500 4 65 10 290
1978231N14251 1978 72 EP MM KRISTY 1978-08-25 15:00:00 TS 20.5325 -136.976 main 1862 1821 P________PP___ EP111978 20.5346 -136.965 HU 62 0 20.5346 -136.965 TC 62 20.5242 -137.019 4 62 10 300
1978231N14251 1978 72 EP MM KRISTY 1978-08-25 18:00:00 TS 20.7944 -137.422 60 hurdat_epa main 1821 1769 O________OP___ hurdat_epa EP111978 20.8000 -137.400 TS 60 0 20.8000 -137.400 TC 60 20.7719 -137.509 4 60 10 299
1978231N14251 1978 72 EP MM KRISTY 1978-08-25 21:00:00 TS 21.0258 -137.926 main 1769 1719 P________PP___ EP111978 21.0301 -137.915 TS 57 0 21.0301 -137.915 TC 57 21.0087 -137.969 4 57 10 294
1978231N14251 1978 72 EP MM KRISTY 1978-08-26 00:00:00 TS 21.2000 -138.400 55 hurdat_epa main 1719 1689 O________OO___ hurdat_epa EP111978 21.2000 -138.400 TS 55 0 21.2000 -138.400 TC 55 21.2000 -138.400 2 55 8 288
1978231N14251 1978 72 EP MM KRISTY 1978-08-26 03:00:00 TS 21.2782 -138.746 main 1689 1647 P________PP___ EP111978 21.2720 -138.743 TS 52 0 21.2720 -138.743 TC 52 21.3029 -138.760 2 52 7 280
1978231N14251 1978 72 EP MM KRISTY 1978-08-26 06:00:00 TS 21.3116 -139.100 50 hurdat_epa main 1647 1607 O________OP___ hurdat_epa EP111978 21.3000 -139.100 TS 50 0 21.3000 -139.100 TC 50 21.3578 -139.099 2 50 8 277
1978231N14251 1978 72 EP MM KRISTY 1978-08-26 09:00:00 TS 21.3687 -139.576 main 1596 1545 P________PP___ EP111978 21.3649 -139.605 TS 47 0 21.3649 -139.605 TC 47 21.3839 -139.463 2 47 10 275
1978231N14251 1978 72 EP CP KRISTY 1978-08-26 12:00:00 TS 21.4000 -140.140 45 hurdat_epa main 1545 1483 O________OO___ hurdat_epa EP111978 21.4000 -140.200 TS 45 0 21.4000 -140.200 TC 45 21.4000 -139.900 2 45 11 270
1978231N14251 1978 72 EP CP KRISTY 1978-08-26 15:00:00 TS 21.3648 -140.785 main 1473 1410 P________PP___ EP111978 21.3427 -140.858 TS 42 0 21.3427 -140.858 TC 42 21.4536 -140.495 2 42 12 267
1978231N14251 1978 72 EP CP KRISTY 1978-08-26 18:00:00 TS 21.3374 -141.426 40 hurdat_epa main 1410 1360 O________OP___ hurdat_epa EP111978 21.3000 -141.500 TS 40 0 21.3000 -141.500 TC 40 21.4966 -141.162 2 40 11 273
1978231N14251 1978 72 EP CP KRISTY 1978-08-26 21:00:00 TS 21.4145 -141.911 main 1360 1299 P________PP___ EP111978 21.3909 -141.925 TS 37 0 21.3909 -141.925 TC 37 21.5161 -141.848 2 37 10 279
1978231N14251 1978 72 EP CP KRISTY 1978-08-27 00:00:00 TS 21.5000 -142.500 35 hurdat_epa main 1299 1206 O________OO___ hurdat_epa EP111978 21.5000 -142.500 TS 35 0 21.5000 -142.500 TC 35 21.5000 -142.500 2 35 14 271
1978231N14251 1978 72 EP CP KRISTY 1978-08-27 03:00:00 TS 21.4388 -143.431 main 1206 1115 P________PP___ EP111978 21.4197 -143.629 TS 35 0 21.4197 -143.629 TC 35 21.3542 -143.086 2 33 17 269
1978231N14251 1978 72 EP CP KRISTY 1978-08-27 06:00:00 TS 21.4812 -144.370 35 hurdat_epa main 1105 1051 O________OP___ hurdat_epa EP111978 21.5000 -144.800 TS 35 0 21.5000 -144.800 TC 35 21.1871 -143.623 2 32 15 285
1978231N14251 1978 72 EP CP KRISTY 1978-08-27 09:00:00 TS 21.8368 -144.997 main 1051 1015 P________PP___ EP111978 22.0361 -145.517 TS 35 0 22.0361 -145.517 TC 35 21.0764 -144.098 2 31 14 310
1978231N14251 1978 72 EP CP KRISTY 1978-08-27 12:00:00 TS 22.3667 -145.517 35 hurdat_epa main 1018 987 O________OO___ hurdat_epa EP111978 22.8000 -146.100 TS 35 0 22.8000 -146.100 TC 35 21.1000 -144.500 1 30 15 319
1978231N14251 1978 72 EP CP KRISTY 1978-08-27 15:00:00 TS 22.9823 -146.059 main 982 958 P________PP___ EP111978 23.6391 -146.747 TS 32 -1 23.6391 -146.747 TC 32 21.3674 -144.801 1 30 13 318
1978231N14251 1978 72 EP CP KRISTY 1978-08-27 18:00:00 TS 23.3542 -146.487 30 hurdat_epa main 962 935 O________OP___ hurdat_epa EP111978 24.3000 -147.500 TD 30 -1 24.3000 -147.500 TC 30 21.7711 -145.037 1 30 8 300
1978231N14251 1978 72 EP CP KRISTY 1978-08-27 21:00:00 TS 23.4008 -146.834 main 935 921 P________PP___ EP111978 24.5457 -148.848 TD 27 -1 24.4970 -148.444 TC 27 22.2394 -145.255 1 30 3 255
1978231N14251 1978 72 EP CP KRISTY 1978-08-28 00:00:00 TS 23.2667 -146.833 25 hurdat_epa main 930 930 O________OO___ hurdat_epa EP111978 24.4000 -149.500 TD 25 -1 24.4000 -149.500 TC 25 22.7000 -145.500 1 30 10 111
1978231N14251 1978 72 EP CP KRISTY 1978-08-28 03:00:00 NR 23.0396 -145.813 main 1010 995 P_________P___ EP111978 23.8293 -147.975 TD 25 -1 TC 23.0718 -145.748 1 28 6 81
1978231N14251 1978 72 EP CP KRISTY 1978-08-28 06:00:00 NR 23.3597 -146.172 25 cphc main 990 963 O_________P___ cphc 23.3000 -146.300 25 23.4195 -146.043 1 27 9 310
1978231N14251 1978 72 EP CP KRISTY 1978-08-28 09:00:00 NR 23.6411 -146.581 main 963 934 P_________P___ 23.4205 -146.422 25 23.7325 -146.442 1 26 10 302
1978231N14251 1978 72 EP CP KRISTY 1978-08-28 12:00:00 NR 23.9000 -147.100 25 cphc main 934 894 O_________O___ cphc 23.8000 -147.200 25 24.0000 -147.000 1 25 12 295
1978231N14251 1978 72 EP CP KRISTY 1978-08-28 15:00:00 NR 24.1521 -147.759 main 892 845 P_________P___ 24.1304 -147.872 25 24.2161 -147.746 1 25 14 291
1978231N14251 1978 72 EP CP KRISTY 1978-08-28 18:00:00 NR 24.4000 -148.500 25 cphc main 845 O_________O___ cphc 24.4000 -148.400 25 24.4000 -148.600 1 25 14 290

IBTrACS Databaseについて

本データベースは、米国NOAAが公開する1842年以降の世界の熱帯低気圧のベストトラックデータアーカイブInternational Best Track Archive for Climate Stewardship (IBTrACS)を、ウェブで閲覧しやすい形式に変換したものです。

最終更新日:2021-11-26